sensor_id;sensor_type;location;lat;lon;timestamp;temperature;humidity
53114;DHT22;39009;53.166;6.232;2022-07-05T00:00:35;12.20;99.90
53114;DHT22;39009;53.166;6.232;2022-07-05T00:03:01;12.10;99.90
53114;DHT22;39009;53.166;6.232;2022-07-05T00:05:26;12.10;99.90
53114;DHT22;39009;53.166;6.232;2022-07-05T00:07:52;12.00;99.90
53114;DHT22;39009;53.166;6.232;2022-07-05T00:10:17;11.90;99.90
53114;DHT22;39009;53.166;6.232;2022-07-05T00:12:43;11.80;99.90
53114;DHT22;39009;53.166;6.232;2022-07-05T00:15:09;11.80;99.90
53114;DHT22;39009;53.166;6.232;2022-07-05T00:17:34;11.80;99.90
53114;DHT22;39009;53.166;6.232;2022-07-05T00:20:00;11.80;99.90
53114;DHT22;39009;53.166;6.232;2022-07-05T00:22:25;11.90;99.90
53114;DHT22;39009;53.166;6.232;2022-07-05T00:24:51;11.90;99.90
53114;DHT22;39009;53.166;6.232;2022-07-05T00:27:17;11.90;99.90
53114;DHT22;39009;53.166;6.232;2022-07-05T00:29:42;11.80;99.90
53114;DHT22;39009;53.166;6.232;2022-07-05T00:32:08;11.80;99.90
53114;DHT22;39009;53.166;6.232;2022-07-05T00:34:33;11.80;99.90
53114;DHT22;39009;53.166;6.232;2022-07-05T00:36:59;11.80;99.90
53114;DHT22;39009;53.166;6.232;2022-07-05T00:39:24;11.80;99.90
53114;DHT22;39009;53.166;6.232;2022-07-05T00:41:52;11.80;99.90
53114;DHT22;39009;53.166;6.232;2022-07-05T00:44:26;11.80;99.90
53114;DHT22;39009;53.166;6.232;2022-07-05T00:46:52;11.70;99.90
53114;DHT22;39009;53.166;6.232;2022-07-05T00:49:18;11.70;99.90
53114;DHT22;39009;53.166;6.232;2022-07-05T00:51:43;11.70;99.90
53114;DHT22;39009;53.166;6.232;2022-07-05T00:54:09;11.60;99.90
53114;DHT22;39009;53.166;6.232;2022-07-05T00:56:34;11.60;99.90
53114;DHT22;39009;53.166;6.232;2022-07-05T00:59:00;11.60;99.90
53114;DHT22;39009;53.166;6.232;2022-07-05T01:01:26;11.60;99.90
53114;DHT22;39009;53.166;6.232;2022-07-05T01:03:51;11.60;99.90
53114;DHT22;39009;53.166;6.232;2022-07-05T01:06:17;11.50;99.90
53114;DHT22;39009;53.166;6.232;2022-07-05T01:08:46;11.50;99.90
53114;DHT22;39009;53.166;6.232;2022-07-05T01:11:12;11.50;99.90
53114;DHT22;39009;53.166;6.232;2022-07-05T01:13:38;11.50;99.90
53114;DHT22;39009;53.166;6.232;2022-07-05T01:16:07;11.50;99.90
53114;DHT22;39009;53.166;6.232;2022-07-05T01:18:33;11.40;99.90
53114;DHT22;39009;53.166;6.232;2022-07-05T01:20:59;11.30;99.90
53114;DHT22;39009;53.166;6.232;2022-07-05T01:23:26;11.30;99.90
53114;DHT22;39009;53.166;6.232;2022-07-05T01:25:52;11.20;99.90
53114;DHT22;39009;53.166;6.232;2022-07-05T01:28:19;11.20;99.90
53114;DHT22;39009;53.166;6.232;2022-07-05T01:30:45;11.20;99.90
53114;DHT22;39009;53.166;6.232;2022-07-05T01:33:11;11.20;99.90
53114;DHT22;39009;53.166;6.232;2022-07-05T01:35:37;11.10;99.90
53114;DHT22;39009;53.166;6.232;2022-07-05T01:38:03;11.10;99.90
53114;DHT22;39009;53.166;6.232;2022-07-05T01:40:29;11.10;99.90
53114;DHT22;39009;53.166;6.232;2022-07-05T01:42:54;11.10;99.90
53114;DHT22;39009;53.166;6.232;2022-07-05T01:45:20;11.10;99.90
53114;DHT22;39009;53.166;6.232;2022-07-05T01:48:07;11.10;99.90
53114;DHT22;39009;53.166;6.232;2022-07-05T01:50:36;11.00;99.90
53114;DHT22;39009;53.166;6.232;2022-07-05T01:53:02;11.10;99.90
53114;DHT22;39009;53.166;6.232;2022-07-05T01:55:31;11.10;99.90
53114;DHT22;39009;53.166;6.232;2022-07-05T01:57:56;11.10;99.90
53114;DHT22;39009;53.166;6.232;2022-07-05T02:00:22;11.10;99.90
53114;DHT22;39009;53.166;6.232;2022-07-05T02:02:48;11.10;99.90
53114;DHT22;39009;53.166;6.232;2022-07-05T02:05:13;11.10;99.90
53114;DHT22;39009;53.166;6.232;2022-07-05T02:07:46;11.00;99.90
53114;DHT22;39009;53.166;6.232;2022-07-05T02:10:11;11.00;99.90
53114;DHT22;39009;53.166;6.232;2022-07-05T02:12:37;10.90;99.90
53114;DHT22;39009;53.166;6.232;2022-07-05T02:15:02;10.90;99.90
53114;DHT22;39009;53.166;6.232;2022-07-05T02:17:28;10.90;99.90
53114;DHT22;39009;53.166;6.232;2022-07-05T02:19:54;10.80;99.90
53114;DHT22;39009;53.166;6.232;2022-07-05T02:22:19;10.80;99.90
53114;DHT22;39009;53.166;6.232;2022-07-05T02:24:45;10.80;99.90
53114;DHT22;39009;53.166;6.232;2022-07-05T02:27:10;10.80;99.90
53114;DHT22;39009;53.166;6.232;2022-07-05T02:29:36;10.80;99.90
53114;DHT22;39009;53.166;6.232;2022-07-05T02:32:01;10.80;99.90
53114;DHT22;39009;53.166;6.232;2022-07-05T02:34:27;10.80;99.90
53114;DHT22;39009;53.166;6.232;2022-07-05T02:36:52;10.70;99.90
53114;DHT22;39009;53.166;6.232;2022-07-05T02:39:18;10.70;99.90
53114;DHT22;39009;53.166;6.232;2022-07-05T02:41:44;10.70;99.90
53114;DHT22;39009;53.166;6.232;2022-07-05T02:44:09;10.60;99.90
53114;DHT22;39009;53.166;6.232;2022-07-05T02:46:35;10.60;99.90
53114;DHT22;39009;53.166;6.232;2022-07-05T02:49:00;10.60;99.90
53114;DHT22;39009;53.166;6.232;2022-07-05T02:51:26;10.60;99.90
53114;DHT22;39009;53.166;6.232;2022-07-05T02:53:51;10.70;99.90
53114;DHT22;39009;53.166;6.232;2022-07-05T02:56:23;10.70;99.90
53114;DHT22;39009;53.166;6.232;2022-07-05T02:58:55;10.60;99.90
53114;DHT22;39009;53.166;6.232;2022-07-05T03:01:20;10.50;99.90
53114;DHT22;39009;53.166;6.232;2022-07-05T03:03:46;10.50;99.90
53114;DHT22;39009;53.166;6.232;2022-07-05T03:06:11;10.50;99.90
53114;DHT22;39009;53.166;6.232;2022-07-05T03:08:37;10.50;99.90
53114;DHT22;39009;53.166;6.232;2022-07-05T03:11:02;10.30;99.90
53114;DHT22;39009;53.166;6.232;2022-07-05T03:13:28;10.30;99.90
53114;DHT22;39009;53.166;6.232;2022-07-05T03:15:56;10.40;99.90
53114;DHT22;39009;53.166;6.232;2022-07-05T03:18:22;10.30;99.90
53114;DHT22;39009;53.166;6.232;2022-07-05T03:20:47;10.30;99.90
53114;DHT22;39009;53.166;6.232;2022-07-05T03:23:13;10.40;99.90
53114;DHT22;39009;53.166;6.232;2022-07-05T03:25:38;10.40;99.90
53114;DHT22;39009;53.166;6.232;2022-07-05T03:28:04;10.40;99.90
53114;DHT22;39009;53.166;6.232;2022-07-05T03:30:30;10.40;99.90
53114;DHT22;39009;53.166;6.232;2022-07-05T03:32:55;10.40;99.90
53114;DHT22;39009;53.166;6.232;2022-07-05T03:35:21;10.40;99.90
53114;DHT22;39009;53.166;6.232;2022-07-05T03:37:46;10.40;99.90
53114;DHT22;39009;53.166;6.232;2022-07-05T03:40:12;10.40;99.90
53114;DHT22;39009;53.166;6.232;2022-07-05T03:42:37;10.50;99.90
53114;DHT22;39009;53.166;6.232;2022-07-05T03:45:03;10.60;99.90
53114;DHT22;39009;53.166;6.232;2022-07-05T03:47:29;10.70;99.90
53114;DHT22;39009;53.166;6.232;2022-07-05T03:49:54;10.80;99.90
53114;DHT22;39009;53.166;6.232;2022-07-05T03:52:20;10.90;99.90
53114;DHT22;39009;53.166;6.232;2022-07-05T03:54:45;11.00;99.90
53114;DHT22;39009;53.166;6.232;2022-07-05T03:57:12;11.20;99.90
53114;DHT22;39009;53.166;6.232;2022-07-05T03:59:38;11.30;99.90
53114;DHT22;39009;53.166;6.232;2022-07-05T04:02:03;11.30;99.90
53114;DHT22;39009;53.166;6.232;2022-07-05T04:04:29;11.40;99.90
53114;DHT22;39009;53.166;6.232;2022-07-05T04:06:55;11.50;99.90
53114;DHT22;39009;53.166;6.232;2022-07-05T04:09:20;11.60;99.90
53114;DHT22;39009;53.166;6.232;2022-07-05T04:11:46;11.80;99.90
53114;DHT22;39009;53.166;6.232;2022-07-05T04:14:11;12.00;99.90
53114;DHT22;39009;53.166;6.232;2022-07-05T04:16:37;12.20;99.90
53114;DHT22;39009;53.166;6.232;2022-07-05T04:19:02;12.30;99.90
53114;DHT22;39009;53.166;6.232;2022-07-05T04:21:28;12.40;99.90
53114;DHT22;39009;53.166;6.232;2022-07-05T04:23:53;12.50;99.90
53114;DHT22;39009;53.166;6.232;2022-07-05T04:26:19;12.50;99.90
53114;DHT22;39009;53.166;6.232;2022-07-05T04:28:45;12.60;99.90
53114;DHT22;39009;53.166;6.232;2022-07-05T04:31:10;12.60;99.90
53114;DHT22;39009;53.166;6.232;2022-07-05T04:33:36;12.70;99.90
53114;DHT22;39009;53.166;6.232;2022-07-05T04:36:01;12.80;99.90
53114;DHT22;39009;53.166;6.232;2022-07-05T04:38:27;12.90;99.90
53114;DHT22;39009;53.166;6.232;2022-07-05T04:40:53;13.00;99.90
53114;DHT22;39009;53.166;6.232;2022-07-05T04:43:18;13.00;99.90
53114;DHT22;39009;53.166;6.232;2022-07-05T04:45:44;12.90;99.90
53114;DHT22;39009;53.166;6.232;2022-07-05T04:48:09;12.90;99.90
53114;DHT22;39009;53.166;6.232;2022-07-05T04:50:35;13.00;99.90
53114;DHT22;39009;53.166;6.232;2022-07-05T04:53:00;13.00;99.90
53114;DHT22;39009;53.166;6.232;2022-07-05T04:55:26;13.20;99.90
53114;DHT22;39009;53.166;6.232;2022-07-05T04:57:51;13.40;99.90
53114;DHT22;39009;53.166;6.232;2022-07-05T05:00:17;13.50;99.90
53114;DHT22;39009;53.166;6.232;2022-07-05T05:02:42;13.70;99.90
53114;DHT22;39009;53.166;6.232;2022-07-05T05:05:08;13.90;99.90
53114;DHT22;39009;53.166;6.232;2022-07-05T05:07:34;14.10;99.90
53114;DHT22;39009;53.166;6.232;2022-07-05T05:10:02;14.30;99.90
53114;DHT22;39009;53.166;6.232;2022-07-05T05:12:27;14.50;99.90
53114;DHT22;39009;53.166;6.232;2022-07-05T05:14:53;14.70;99.90
53114;DHT22;39009;53.166;6.232;2022-07-05T05:17:18;15.00;99.90
53114;DHT22;39009;53.166;6.232;2022-07-05T05:19:44;14.90;99.90
53114;DHT22;39009;53.166;6.232;2022-07-05T05:22:10;15.30;99.90
53114;DHT22;39009;53.166;6.232;2022-07-05T05:24:56;15.50;99.90
53114;DHT22;39009;53.166;6.232;2022-07-05T05:27:21;15.70;99.90
53114;DHT22;39009;53.166;6.232;2022-07-05T05:29:47;15.90;99.90
53114;DHT22;39009;53.166;6.232;2022-07-05T05:32:12;16.10;99.90
53114;DHT22;39009;53.166;6.232;2022-07-05T05:34:44;16.30;99.90
53114;DHT22;39009;53.166;6.232;2022-07-05T05:37:09;16.50;99.90
53114;DHT22;39009;53.166;6.232;2022-07-05T05:39:35;16.70;99.90
53114;DHT22;39009;53.166;6.232;2022-07-05T05:42:00;16.90;99.90
53114;DHT22;39009;53.166;6.232;2022-07-05T05:44:26;17.10;99.90
53114;DHT22;39009;53.166;6.232;2022-07-05T05:46:52;17.30;99.90
53114;DHT22;39009;53.166;6.232;2022-07-05T05:49:17;17.50;99.90
53114;DHT22;39009;53.166;6.232;2022-07-05T05:51:43;17.70;99.90
53114;DHT22;39009;53.166;6.232;2022-07-05T05:54:08;17.80;99.90
53114;DHT22;39009;53.166;6.232;2022-07-05T05:56:34;17.90;99.90
53114;DHT22;39009;53.166;6.232;2022-07-05T05:58:59;18.10;99.90
53114;DHT22;39009;53.166;6.232;2022-07-05T06:01:25;18.10;99.90
53114;DHT22;39009;53.166;6.232;2022-07-05T06:03:50;18.10;99.90
53114;DHT22;39009;53.166;6.232;2022-07-05T06:06:16;18.00;99.90
53114;DHT22;39009;53.166;6.232;2022-07-05T06:08:41;18.20;99.90
53114;DHT22;39009;53.166;6.232;2022-07-05T06:11:07;18.30;99.90
53114;DHT22;39009;53.166;6.232;2022-07-05T06:13:33;18.50;99.90
53114;DHT22;39009;53.166;6.232;2022-07-05T06:15:58;18.70;99.90
53114;DHT22;39009;53.166;6.232;2022-07-05T06:18:24;18.70;99.90
53114;DHT22;39009;53.166;6.232;2022-07-05T06:20:50;18.90;99.90
53114;DHT22;39009;53.166;6.232;2022-07-05T06:23:15;19.10;99.90
53114;DHT22;39009;53.166;6.232;2022-07-05T06:25:41;19.30;99.90
53114;DHT22;39009;53.166;6.232;2022-07-05T06:28:07;19.50;99.90
53114;DHT22;39009;53.166;6.232;2022-07-05T06:30:34;19.80;99.90
53114;DHT22;39009;53.166;6.232;2022-07-05T06:32:59;19.90;99.90
53114;DHT22;39009;53.166;6.232;2022-07-05T06:35:25;20.10;99.90
53114;DHT22;39009;53.166;6.232;2022-07-05T06:37:52;20.40;99.90
53114;DHT22;39009;53.166;6.232;2022-07-05T06:40:19;20.70;99.90
53114;DHT22;39009;53.166;6.232;2022-07-05T06:42:45;20.90;99.90
53114;DHT22;39009;53.166;6.232;2022-07-05T06:45:11;21.10;99.90
53114;DHT22;39009;53.166;6.232;2022-07-05T06:47:39;21.40;99.90
53114;DHT22;39009;53.166;6.232;2022-07-05T06:50:05;21.70;99.90
53114;DHT22;39009;53.166;6.232;2022-07-05T06:52:31;22.00;99.90
53114;DHT22;39009;53.166;6.232;2022-07-05T06:54:58;22.20;99.90
53114;DHT22;39009;53.166;6.232;2022-07-05T06:57:24;22.30;99.90
53114;DHT22;39009;53.166;6.232;2022-07-05T06:59:50;22.40;99.90
53114;DHT22;39009;53.166;6.232;2022-07-05T07:02:16;22.20;99.90
53114;DHT22;39009;53.166;6.232;2022-07-05T07:04:41;22.00;99.90
53114;DHT22;39009;53.166;6.232;2022-07-05T07:07:07;21.90;99.90
53114;DHT22;39009;53.166;6.232;2022-07-05T07:09:51;22.00;99.90
53114;DHT22;39009;53.166;6.232;2022-07-05T07:12:17;22.00;99.90
53114;DHT22;39009;53.166;6.232;2022-07-05T07:14:42;22.10;99.90
53114;DHT22;39009;53.166;6.232;2022-07-05T07:17:08;22.50;99.90
53114;DHT22;39009;53.166;6.232;2022-07-05T07:19:33;22.90;99.90
53114;DHT22;39009;53.166;6.232;2022-07-05T07:21:59;23.10;99.90
53114;DHT22;39009;53.166;6.232;2022-07-05T07:24:25;23.20;99.90
53114;DHT22;39009;53.166;6.232;2022-07-05T07:26:50;23.20;99.90
53114;DHT22;39009;53.166;6.232;2022-07-05T07:29:30;23.10;99.90
53114;DHT22;39009;53.166;6.232;2022-07-05T07:31:56;23.20;99.90
53114;DHT22;39009;53.166;6.232;2022-07-05T07:34:22;23.20;99.90
53114;DHT22;39009;53.166;6.232;2022-07-05T07:36:48;23.30;99.70
53114;DHT22;39009;53.166;6.232;2022-07-05T07:39:14;23.60;99.90
53114;DHT22;39009;53.166;6.232;2022-07-05T07:41:39;24.00;99.90
53114;DHT22;39009;53.166;6.232;2022-07-05T07:44:05;24.20;98.10
53114;DHT22;39009;53.166;6.232;2022-07-05T07:46:30;24.60;99.40
53114;DHT22;39009;53.166;6.232;2022-07-05T07:48:56;24.70;98.40
53114;DHT22;39009;53.166;6.232;2022-07-05T07:51:22;25.10;98.80
53114;DHT22;39009;53.166;6.232;2022-07-05T07:53:47;25.40;97.40
53114;DHT22;39009;53.166;6.232;2022-07-05T07:56:13;25.40;96.30
53114;DHT22;39009;53.166;6.232;2022-07-05T07:58:39;25.20;95.30
53114;DHT22;39009;53.166;6.232;2022-07-05T08:01:07;24.60;95.80
53114;DHT22;39009;53.166;6.232;2022-07-05T08:03:36;24.70;96.20
53114;DHT22;39009;53.166;6.232;2022-07-05T08:06:02;25.00;95.90
53114;DHT22;39009;53.166;6.232;2022-07-05T08:08:28;25.30;94.90
53114;DHT22;39009;53.166;6.232;2022-07-05T08:10:53;25.50;94.80
53114;DHT22;39009;53.166;6.232;2022-07-05T08:13:19;25.90;94.00
53114;DHT22;39009;53.166;6.232;2022-07-05T08:15:44;26.30;94.20
53114;DHT22;39009;53.166;6.232;2022-07-05T08:18:10;26.80;93.90
53114;DHT22;39009;53.166;6.232;2022-07-05T08:20:54;26.90;92.50
53114;DHT22;39009;53.166;6.232;2022-07-05T08:23:38;26.80;91.00
53114;DHT22;39009;53.166;6.232;2022-07-05T08:26:04;26.90;91.00
53114;DHT22;39009;53.166;6.232;2022-07-05T08:28:30;27.30;92.20
53114;DHT22;39009;53.166;6.232;2022-07-05T08:30:55;27.60;92.30
53114;DHT22;39009;53.166;6.232;2022-07-05T08:33:21;27.20;88.80
53114;DHT22;39009;53.166;6.232;2022-07-05T08:35:46;26.60;87.70
53114;DHT22;39009;53.166;6.232;2022-07-05T08:38:12;26.20;88.60
53114;DHT22;39009;53.166;6.232;2022-07-05T08:40:38;26.50;91.00
53114;DHT22;39009;53.166;6.232;2022-07-05T08:43:05;26.90;90.90
53114;DHT22;39009;53.166;6.232;2022-07-05T08:45:32;27.00;90.10
53114;DHT22;39009;53.166;6.232;2022-07-05T08:47:58;27.50;91.10
53114;DHT22;39009;53.166;6.232;2022-07-05T08:50:26;27.80;87.20
53114;DHT22;39009;53.166;6.232;2022-07-05T08:52:52;27.70;88.10
53114;DHT22;39009;53.166;6.232;2022-07-05T08:55:18;27.20;86.00
53114;DHT22;39009;53.166;6.232;2022-07-05T08:57:43;27.10;85.50
53114;DHT22;39009;53.166;6.232;2022-07-05T09:00:09;27.30;86.60
53114;DHT22;39009;53.166;6.232;2022-07-05T09:02:35;27.50;87.10
53114;DHT22;39009;53.166;6.232;2022-07-05T09:05:00;28.00;86.70
53114;DHT22;39009;53.166;6.232;2022-07-05T09:07:26;27.60;84.20
53114;DHT22;39009;53.166;6.232;2022-07-05T09:09:54;27.00;83.80
53114;DHT22;39009;53.166;6.232;2022-07-05T09:12:21;26.30;85.30
53114;DHT22;39009;53.166;6.232;2022-07-05T09:14:46;25.80;87.50
53114;DHT22;39009;53.166;6.232;2022-07-05T09:17:12;25.30;87.50
53114;DHT22;39009;53.166;6.232;2022-07-05T09:19:38;24.90;87.60
53114;DHT22;39009;53.166;6.232;2022-07-05T09:22:04;24.70;90.00
53114;DHT22;39009;53.166;6.232;2022-07-05T09:24:30;25.10;90.70
53114;DHT22;39009;53.166;6.232;2022-07-05T09:27:01;25.90;91.60
53114;DHT22;39009;53.166;6.232;2022-07-05T09:29:27;26.50;89.20
53114;DHT22;39009;53.166;6.232;2022-07-05T09:31:52;26.70;92.20
53114;DHT22;39009;53.166;6.232;2022-07-05T09:34:18;26.90;89.80
53114;DHT22;39009;53.166;6.232;2022-07-05T09:36:58;27.20;86.00
53114;DHT22;39009;53.166;6.232;2022-07-05T09:44:38;28.10;82.80
53114;DHT22;39009;53.166;6.232;2022-07-05T09:47:07;27.50;81.30
53114;DHT22;39009;53.166;6.232;2022-07-05T09:49:33;26.90;80.90
53114;DHT22;39009;53.166;6.232;2022-07-05T09:51:58;26.40;82.70
53114;DHT22;39009;53.166;6.232;2022-07-05T09:54:24;26.50;86.10
53114;DHT22;39009;53.166;6.232;2022-07-05T09:56:49;26.70;84.20
53114;DHT22;39009;53.166;6.232;2022-07-05T09:59:16;26.40;83.30
53114;DHT22;39009;53.166;6.232;2022-07-05T10:01:43;26.00;84.30
53114;DHT22;39009;53.166;6.232;2022-07-05T10:04:09;26.00;85.50
53114;DHT22;39009;53.166;6.232;2022-07-05T10:06:35;26.30;83.80
53114;DHT22;39009;53.166;6.232;2022-07-05T10:09:01;26.80;84.20
53114;DHT22;39009;53.166;6.232;2022-07-05T10:11:27;27.30;83.30
53114;DHT22;39009;53.166;6.232;2022-07-05T10:13:53;27.20;81.60
53114;DHT22;39009;53.166;6.232;2022-07-05T10:16:19;27.50;83.90
53114;DHT22;39009;53.166;6.232;2022-07-05T10:18:45;28.10;83.20
53114;DHT22;39009;53.166;6.232;2022-07-05T10:21:12;28.50;80.50
53114;DHT22;39009;53.166;6.232;2022-07-05T10:23:38;28.70;80.70
53114;DHT22;39009;53.166;6.232;2022-07-05T10:26:04;28.90;79.30
53114;DHT22;39009;53.166;6.232;2022-07-05T10:28:30;28.70;79.70
53114;DHT22;39009;53.166;6.232;2022-07-05T10:30:57;28.10;76.50
53114;DHT22;39009;53.166;6.232;2022-07-05T10:33:23;27.70;78.30
53114;DHT22;39009;53.166;6.232;2022-07-05T10:35:52;27.10;78.30
53114;DHT22;39009;53.166;6.232;2022-07-05T10:38:18;26.70;80.00
53114;DHT22;39009;53.166;6.232;2022-07-05T10:40:46;26.30;80.30
53114;DHT22;39009;53.166;6.232;2022-07-05T10:43:13;26.10;81.60
53114;DHT22;39009;53.166;6.232;2022-07-05T10:45:51;26.10;82.60
53114;DHT22;39009;53.166;6.232;2022-07-05T10:48:17;26.10;81.90
53114;DHT22;39009;53.166;6.232;2022-07-05T10:50:47;26.00;83.40
53114;DHT22;39009;53.166;6.232;2022-07-05T10:53:15;25.80;82.40
53114;DHT22;39009;53.166;6.232;2022-07-05T10:55:49;25.80;84.80
53114;DHT22;39009;53.166;6.232;2022-07-05T11:00:41;25.60;84.00
53114;DHT22;39009;53.166;6.232;2022-07-05T11:03:08;25.60;84.20
53114;DHT22;39009;53.166;6.232;2022-07-05T11:05:53;25.90;84.00
53114;DHT22;39009;53.166;6.232;2022-07-05T11:08:19;26.50;84.00
53114;DHT22;39009;53.166;6.232;2022-07-05T11:11:13;26.50;81.30
53114;DHT22;39009;53.166;6.232;2022-07-05T11:13:40;26.40;81.40
53114;DHT22;39009;53.166;6.232;2022-07-05T11:18:49;26.30;81.50
53114;DHT22;39009;53.166;6.232;2022-07-05T11:21:16;26.90;84.20
53114;DHT22;39009;53.166;6.232;2022-07-05T11:23:42;27.30;83.80
53114;DHT22;39009;53.166;6.232;2022-07-05T11:26:08;27.10;79.90
53114;DHT22;39009;53.166;6.232;2022-07-05T11:28:43;26.40;80.90
53114;DHT22;39009;53.166;6.232;2022-07-05T11:31:09;25.70;82.50
53114;DHT22;39009;53.166;6.232;2022-07-05T11:33:39;25.10;82.50
53114;DHT22;39009;53.166;6.232;2022-07-05T11:36:06;24.80;83.80
53114;DHT22;39009;53.166;6.232;2022-07-05T11:38:32;24.70;85.90
53114;DHT22;39009;53.166;6.232;2022-07-05T11:41:10;24.80;87.30
53114;DHT22;39009;53.166;6.232;2022-07-05T11:43:36;24.40;86.70
53114;DHT22;39009;53.166;6.232;2022-07-05T11:46:01;23.80;88.10
53114;DHT22;39009;53.166;6.232;2022-07-05T11:48:28;23.20;88.80
53114;DHT22;39009;53.166;6.232;2022-07-05T11:50:54;22.80;89.30
53114;DHT22;39009;53.166;6.232;2022-07-05T11:53:31;22.50;90.00
53114;DHT22;39009;53.166;6.232;2022-07-05T11:55:57;22.40;90.90
53114;DHT22;39009;53.166;6.232;2022-07-05T11:58:29;22.30;91.00
53114;DHT22;39009;53.166;6.232;2022-07-05T12:00:55;22.20;91.00
53114;DHT22;39009;53.166;6.232;2022-07-05T12:03:22;22.10;90.90
53114;DHT22;39009;53.166;6.232;2022-07-05T12:05:47;21.90;91.00
53114;DHT22;39009;53.166;6.232;2022-07-05T12:08:23;21.70;91.30
53114;DHT22;39009;53.166;6.232;2022-07-05T12:10:50;21.60;92.10
53114;DHT22;39009;53.166;6.232;2022-07-05T12:16:18;21.40;91.80
53114;DHT22;39009;53.166;6.232;2022-07-05T12:18:47;21.40;91.80
53114;DHT22;39009;53.166;6.232;2022-07-05T12:21:12;21.40;92.50
53114;DHT22;39009;53.166;6.232;2022-07-05T12:23:41;21.40;93.10
53114;DHT22;39009;53.166;6.232;2022-07-05T12:26:07;21.50;93.10
53114;DHT22;39009;53.166;6.232;2022-07-05T12:28:33;21.20;92.50
53114;DHT22;39009;53.166;6.232;2022-07-05T12:30:58;21.10;92.50
53114;DHT22;39009;53.166;6.232;2022-07-05T12:33:24;21.00;93.00
53114;DHT22;39009;53.166;6.232;2022-07-05T12:35:49;20.90;93.20
53114;DHT22;39009;53.166;6.232;2022-07-05T12:38:18;20.70;93.60
53114;DHT22;39009;53.166;6.232;2022-07-05T12:40:45;20.70;93.70
53114;DHT22;39009;53.166;6.232;2022-07-05T12:43:11;20.60;93.30
53114;DHT22;39009;53.166;6.232;2022-07-05T12:45:40;20.70;93.20
53114;DHT22;39009;53.166;6.232;2022-07-05T12:48:06;20.70;92.20
53114;DHT22;39009;53.166;6.232;2022-07-05T12:50:45;20.80;93.20
53114;DHT22;39009;53.166;6.232;2022-07-05T12:53:12;21.00;93.40
53114;DHT22;39009;53.166;6.232;2022-07-05T12:56:02;21.30;93.50
53114;DHT22;39009;53.166;6.232;2022-07-05T13:01:20;21.50;92.60
53114;DHT22;39009;53.166;6.232;2022-07-05T13:06:21;21.80;94.00
53114;DHT22;39009;53.166;6.232;2022-07-05T13:08:56;21.70;93.30
53114;DHT22;39009;53.166;6.232;2022-07-05T13:11:30;21.70;93.60
53114;DHT22;39009;53.166;6.232;2022-07-05T13:13:56;21.70;93.20
53114;DHT22;39009;53.166;6.232;2022-07-05T13:16:21;21.60;92.60
53114;DHT22;39009;53.166;6.232;2022-07-05T13:18:47;21.80;92.40
53114;DHT22;39009;53.166;6.232;2022-07-05T13:21:12;22.10;92.80
53114;DHT22;39009;53.166;6.232;2022-07-05T13:23:38;22.20;92.10
53114;DHT22;39009;53.166;6.232;2022-07-05T13:26:07;22.10;90.90
53114;DHT22;39009;53.166;6.232;2022-07-05T13:28:35;21.90;91.10
53114;DHT22;39009;53.166;6.232;2022-07-05T13:31:00;21.80;90.90
53114;DHT22;39009;53.166;6.232;2022-07-05T13:33:26;21.70;91.00
53114;DHT22;39009;53.166;6.232;2022-07-05T13:35:51;21.70;91.70
53114;DHT22;39009;53.166;6.232;2022-07-05T13:38:17;22.20;92.30
53114;DHT22;39009;53.166;6.232;2022-07-05T13:40:43;22.50;90.90
53114;DHT22;39009;53.166;6.232;2022-07-05T13:43:08;22.50;89.80
53114;DHT22;39009;53.166;6.232;2022-07-05T13:45:34;22.70;90.00
53114;DHT22;39009;53.166;6.232;2022-07-05T13:47:59;22.90;90.60
53114;DHT22;39009;53.166;6.232;2022-07-05T13:50:25;23.30;90.10
53114;DHT22;39009;53.166;6.232;2022-07-05T13:52:57;23.70;89.00
53114;DHT22;39009;53.166;6.232;2022-07-05T13:55:22;23.80;87.40
53114;DHT22;39009;53.166;6.232;2022-07-05T13:57:48;23.70;87.00
53114;DHT22;39009;53.166;6.232;2022-07-05T14:00:14;23.50;86.60
53114;DHT22;39009;53.166;6.232;2022-07-05T14:02:39;23.20;87.40
53114;DHT22;39009;53.166;6.232;2022-07-05T14:05:05;23.00;85.10
53114;DHT22;39009;53.166;6.232;2022-07-05T14:07:31;22.80;85.90
53114;DHT22;39009;53.166;6.232;2022-07-05T14:09:56;22.70;87.30
53114;DHT22;39009;53.166;6.232;2022-07-05T14:12:25;22.50;89.50
53114;DHT22;39009;53.166;6.232;2022-07-05T14:14:50;22.30;87.50
53114;DHT22;39009;53.166;6.232;2022-07-05T14:17:16;22.10;88.10
53114;DHT22;39009;53.166;6.232;2022-07-05T14:19:41;21.90;89.00
53114;DHT22;39009;53.166;6.232;2022-07-05T14:22:07;22.00;90.00
53114;DHT22;39009;53.166;6.232;2022-07-05T14:24:32;22.20;90.60
53114;DHT22;39009;53.166;6.232;2022-07-05T14:26:58;22.50;90.70
53114;DHT22;39009;53.166;6.232;2022-07-05T14:29:24;22.50;87.70
53114;DHT22;39009;53.166;6.232;2022-07-05T14:31:49;22.80;90.90
53114;DHT22;39009;53.166;6.232;2022-07-05T14:34:16;22.90;88.90
53114;DHT22;39009;53.166;6.232;2022-07-05T14:36:43;22.80;87.80
53114;DHT22;39009;53.166;6.232;2022-07-05T14:39:09;22.70;89.50
53114;DHT22;39009;53.166;6.232;2022-07-05T14:41:37;22.60;88.50
53114;DHT22;39009;53.166;6.232;2022-07-05T14:44:03;22.50;88.30
53114;DHT22;39009;53.166;6.232;2022-07-05T14:46:28;22.40;87.80
53114;DHT22;39009;53.166;6.232;2022-07-05T14:48:54;22.10;88.80
53114;DHT22;39009;53.166;6.232;2022-07-05T14:51:19;21.80;89.40
53114;DHT22;39009;53.166;6.232;2022-07-05T14:53:45;21.60;90.70
53114;DHT22;39009;53.166;6.232;2022-07-05T14:56:13;21.40;90.40
53114;DHT22;39009;53.166;6.232;2022-07-05T14:58:38;21.30;90.90
53114;DHT22;39009;53.166;6.232;2022-07-05T15:01:04;21.20;91.20
53114;DHT22;39009;53.166;6.232;2022-07-05T15:03:30;21.20;91.60
53114;DHT22;39009;53.166;6.232;2022-07-05T15:05:55;21.20;91.50
53114;DHT22;39009;53.166;6.232;2022-07-05T15:08:21;21.20;91.40
53114;DHT22;39009;53.166;6.232;2022-07-05T15:10:47;21.30;91.80
53114;DHT22;39009;53.166;6.232;2022-07-05T15:13:13;21.40;92.60
53114;DHT22;39009;53.166;6.232;2022-07-05T15:15:38;21.50;92.40
53114;DHT22;39009;53.166;6.232;2022-07-05T15:18:04;21.50;91.50
53114;DHT22;39009;53.166;6.232;2022-07-05T15:20:29;21.30;92.00
53114;DHT22;39009;53.166;6.232;2022-07-05T15:22:55;21.30;92.20
53114;DHT22;39009;53.166;6.232;2022-07-05T15:25:24;21.20;91.20
53114;DHT22;39009;53.166;6.232;2022-07-05T15:27:49;21.10;91.90
53114;DHT22;39009;53.166;6.232;2022-07-05T15:30:15;21.00;91.50
53114;DHT22;39009;53.166;6.232;2022-07-05T15:32:43;21.00;92.40
53114;DHT22;39009;53.166;6.232;2022-07-05T15:35:09;20.90;92.00
53114;DHT22;39009;53.166;6.232;2022-07-05T15:37:35;20.90;92.30
53114;DHT22;39009;53.166;6.232;2022-07-05T15:40:00;20.90;92.30
53114;DHT22;39009;53.166;6.232;2022-07-05T15:42:27;20.90;92.00
53114;DHT22;39009;53.166;6.232;2022-07-05T15:44:52;20.90;91.70